Time;durP1;ratioP1;P1;durP2;ratioP2;P2;SDS_P1;SDS_P2;PMS_P1;PMS_P2;Temp;Humidity;BMP_temperature;BMP_pressure;BME280_temperature;BME280_humidity;BME280_pressure;Samples;Min_cycle;Max_cycle;Signal;HPM_P1;HPM_P2
2023/01/03 00:00:37;;;;;;;2.08;1.75;;;7.10;1.00;;;;;;4905689;29;20056;-86
2023/01/03 00:03:28;;;;;;;1.45;1.35;;;7.10;1.00;;;;;;4906248;29;20134;-88
2023/01/03 00:06:22;;;;;;;2.15;1.27;;;7.10;1.00;;;;;;4920087;29;20465;-87
2023/01/03 00:09:13;;;;;;;1.10;1.00;;;7.10;1.00;;;;;;4925514;29;20099;-86
2023/01/03 00:15:14;;;;;;;1.58;1.48;;;7.20;99.90;;;;;;4915401;29;20048;-86
2023/01/03 00:18:03;;;;;;;1.60;1.50;;;7.30;99.90;;;;;;4905442;29;20123;-86
2023/01/03 00:20:53;;;;;;;2.53;1.40;;;7.30;99.90;;;;;;4906506;29;20477;-86
2023/01/03 00:23:41;;;;;;;1.33;1.02;;;7.40;99.90;;;;;;4906940;29;20055;-86
2023/01/03 00:26:30;;;;;;;1.73;1.10;;;7.40;99.90;;;;;;4918652;29;20071;-86
2023/01/03 00:29:21;;;;;;;1.33;1.20;;;7.30;98.00;;;;;;4904713;29;20525;-86
2023/01/03 00:32:09;;;;;;;7.85;5.38;;;7.30;65.40;;;;;;4907275;29;20072;-86
2023/01/03 00:34:56;;;;;;;14.95;9.38;;;7.30;47.00;;;;;;4919831;29;20059;-85
2023/01/03 00:37:51;;;;;;;11.32;6.93;;;7.20;80.10;;;;;;4917820;29;20063;-85
2023/01/03 00:40:38;;;;;;;17.92;9.98;;;7.20;99.90;;;;;;4919263;29;20097;-85
2023/01/03 00:43:28;;;;;;;9.10;6.57;;;7.10;99.90;;;;;;4899641;29;20123;-85
2023/01/03 00:46:19;;;;;;;7.30;4.15;;;7.10;99.90;;;;;;4905339;29;20063;-85
2023/01/03 00:49:07;;;;;;;3.47;2.25;;;7.10;99.90;;;;;;4929628;29;20050;-86
2023/01/03 00:51:57;;;;;;;3.70;2.10;;;7.00;99.90;;;;;;4898700;29;20068;-86
2023/01/03 00:54:46;;;;;;;2.60;1.90;;;7.00;99.90;;;;;;4904962;29;20048;-85
2023/01/03 00:57:34;;;;;;;2.22;1.67;;;7.00;1.00;;;;;;4918805;29;20115;-86
2023/01/03 01:00:23;;;;;;;1.55;1.45;;;6.90;1.00;;;;;;4919667;29;20119;-86
2023/01/03 01:03:10;;;;;;;1.67;1.48;;;6.90;1.00;;;;;;4918144;29;20481;-86
2023/01/03 01:05:58;;;;;;;2.65;1.40;;;6.90;47.30;;;;;;4926586;29;20502;-86
2023/01/03 01:08:50;;;;;;;2.25;1.20;;;6.90;99.90;;;;;;4909623;29;20186;-86
2023/01/03 01:11:41;;;;;;;1.23;1.23;;;6.90;99.90;;;;;;4932851;29;20122;-86
2023/01/03 01:14:32;;;;;;;3.35;1.23;;;6.90;99.90;;;;;;4930766;29;20300;-86
2023/01/03 01:17:19;;;;;;;3.83;1.25;;;6.90;99.90;;;;;;4912716;29;20474;-86
2023/01/03 01:20:09;;;;;;;2.67;1.25;;;6.90;99.90;;;;;;4926841;29;20107;-87
2023/01/03 01:22:56;;;;;;;1.33;1.20;;;6.80;99.90;;;;;;4928507;29;20051;-87
2023/01/03 01:25:43;;;;;;;1.25;1.10;;;6.90;99.90;;;;;;4935211;29;20514;-86
2023/01/03 01:28:31;;;;;;;1.17;1.08;;;6.90;99.90;;;;;;4939725;29;20040;-85
2023/01/03 01:31:21;;;;;;;1.83;1.00;;;6.80;99.90;;;;;;4930051;29;20075;-86
2023/01/03 01:34:11;;;;;;;1.42;1.08;;;6.80;99.90;;;;;;4916433;29;20044;-86
2023/01/03 01:36:59;;;;;;;1.67;1.00;;;6.70;99.90;;;;;;4933008;29;20143;-86
2023/01/03 01:39:48;;;;;;;4.53;1.50;;;6.70;99.90;;;;;;4918621;29;20080;-86
2023/01/03 01:45:44;;;;;;;1.35;1.25;;;6.60;99.90;;;;;;4923403;29;20124;-86
2023/01/03 01:48:33;;;;;;;1.50;1.38;;;6.50;1.00;;;;;;4905362;29;20084;-85
2023/01/03 01:51:23;;;;;;;2.33;1.42;;;6.60;21.70;;;;;;4906754;29;20044;-85
2023/01/03 01:54:10;;;;;;;1.77;1.40;;;6.70;99.90;;;;;;4917502;29;20493;-85
2023/01/03 01:56:58;;;;;;;3.70;1.63;;;6.60;99.90;;;;;;4918559;29;20457;-85
2023/01/03 01:59:46;;;;;;;2.05;1.75;;;6.60;99.90;;;;;;4899609;29;20055;-85
2023/01/03 02:02:33;;;;;;;1.92;1.50;;;6.60;99.90;;;;;;4917206;29;20051;-85
2023/01/03 02:05:22;;;;;;;1.50;1.40;;;6.60;99.90;;;;;;4890338;29;20062;-85
2023/01/03 02:08:12;;;;;;;2.28;1.40;;;6.60;29.70;;;;;;4907293;29;20080;-85
2023/01/03 02:11:21;;;;;;;1.75;1.38;;;6.60;1.00;;;;;;4903674;29;20055;-85
2023/01/03 02:14:27;;;;;;;2.15;1.20;;;6.60;1.00;;;;;;4914676;29;20048;-86
2023/01/03 02:17:18;;;;;;;1.30;1.20;;;6.60;1.00;;;;;;4906254;29;20486;-85
2023/01/03 02:20:42;;;;;;;1.67;1.27;;;6.60;1.00;;;;;;4919227;29;20055;-85
2023/01/03 02:24:21;;;;;;;1.20;1.20;;;6.60;1.00;;;;;;4920690;29;20370;-86
2023/01/03 02:27:40;;;;;;;2.35;1.05;;;6.60;99.90;;;;;;4888468;29;20506;-86
2023/01/03 02:30:31;;;;;;;3.03;1.30;;;6.50;99.90;;;;;;4871456;29;20048;-87
2023/01/03 02:33:26;;;;;;;1.40;1.30;;;6.40;1.00;;;;;;4918171;29;20089;-86
2023/01/03 02:36:53;;;;;;;2.25;1.00;;;6.30;1.00;;;;;;4906711;29;20126;-86
2023/01/03 02:40:05;;;;;;;1.08;1.08;;;6.40;2.90;;;;;;4893772;29;20056;-86
2023/01/03 02:43:11;;;;;;;2.97;1.52;;;6.30;99.90;;;;;;4923609;29;20500;-86
2023/01/03 02:46:03;;;;;;;3.28;1.40;;;6.30;99.90;;;;;;4915050;29;20434;-86
2023/01/03 02:49:20;;;;;;;1.60;1.48;;;6.20;99.90;;;;;;4917756;29;20037;-87
2023/01/03 02:52:12;;;;;;;2.55;1.30;;;6.10;99.90;;;;;;4921677;29;20044;-87
2023/01/03 02:55:05;;;;;;;1.55;1.42;;;6.10;99.90;;;;;;4913823;29;20046;-87
2023/01/03 02:58:04;;;;;;;1.70;1.30;;;6.10;99.90;;;;;;4902796;29;20051;-86
2023/01/03 03:00:54;;;;;;;1.85;1.30;;;6.00;99.90;;;;;;4924234;29;20087;-86
2023/01/03 03:03:43;;;;;;;2.42;1.40;;;6.00;1.00;;;;;;4906319;29;20040;-86
2023/01/03 03:06:43;;;;;;;2.55;1.45;;;5.90;99.90;;;;;;4904981;29;20063;-86
2023/01/03 03:09:31;;;;;;;1.73;1.50;;;5.90;1.00;;;;;;4921426;29;20107;-87
2023/01/03 03:15:31;;;;;;;1.92;1.50;;;5.80;1.00;;;;;;4923022;29;20055;-86
2023/01/03 03:18:25;;;;;;;3.08;1.58;;;5.80;99.90;;;;;;4919805;29;20052;-85
2023/01/03 03:30:49;;;;;;;1.67;1.58;;;5.80;99.90;;;;;;4917317;29;20051;-85
2023/01/03 03:33:50;;;;;;;1.70;1.60;;;5.80;1.00;;;;;;4914902;29;20051;-85
2023/01/03 03:36:45;;;;;;;3.08;2.65;;;5.60;50.10;;;;;;4916641;29;20039;-86
2023/01/03 03:46:43;;;;;;;3.15;1.90;;;5.50;1.00;;;;;;4908882;29;20143;-86
2023/01/03 03:49:43;;;;;;;2.28;1.50;;;5.40;1.00;;;;;;4907875;29;20059;-85
2023/01/03 03:52:34;;;;;;;3.78;1.58;;;5.40;58.10;;;;;;4907038;29;20052;-86
2023/01/03 03:55:31;;;;;;;1.88;1.63;;;5.30;99.90;;;;;;4907503;29;20059;-85
2023/01/03 03:58:27;;;;;;;3.90;1.80;;;5.30;99.90;;;;;;4907500;29;20052;-85
2023/01/03 04:01:21;;;;;;;3.72;1.88;;;5.10;99.90;;;;;;4916026;29;20059;-84
2023/01/03 04:04:16;;;;;;;5.32;1.90;;;5.00;99.90;;;;;;4910411;29;20482;-86
2023/01/03 04:07:06;;;;;;;3.50;2.35;;;4.90;99.90;;;;;;4920588;29;20044;-85
2023/01/03 04:09:55;;;;;;;3.35;2.22;;;4.90;99.90;;;;;;4919915;29;20076;-85
2023/01/03 04:12:42;;;;;;;4.20;1.90;;;4.80;99.90;;;;;;4917908;29;20107;-85
2023/01/03 04:15:29;;;;;;;4.78;2.45;;;4.70;99.90;;;;;;4920310;29;20127;-86
2023/01/03 04:18:18;;;;;;;2.72;2.17;;;4.60;99.90;;;;;;4923823;29;20052;-85
2023/01/03 04:21:05;;;;;;;2.03;1.88;;;4.50;99.90;;;;;;4911683;29;20438;-86
2023/01/03 04:23:52;;;;;;;2.95;2.08;;;4.40;99.90;;;;;;4920248;29;20095;-84
2023/01/03 04:26:40;;;;;;;3.10;2.45;;;4.40;99.90;;;;;;4932046;29;20044;-85
2023/01/03 04:29:27;;;;;;;4.95;2.20;;;4.30;99.90;;;;;;4932160;29;20036;-86
2023/01/03 04:32:17;;;;;;;3.95;2.33;;;4.30;99.90;;;;;;4919421;29;20107;-84
2023/01/03 04:35:08;;;;;;;2.75;2.55;;;4.20;99.90;;;;;;4927838;29;20040;-85
2023/01/03 04:37:56;;;;;;;3.05;2.60;;;4.10;99.90;;;;;;4910511;29;20549;-85
2023/01/03 04:40:43;;;;;;;2.65;2.45;;;4.10;99.90;;;;;;4918898;29;20063;-84
2023/01/03 04:46:39;;;;;;;3.38;2.80;;;4.20;99.90;;;;;;4917192;29;20063;-86
2023/01/03 04:49:29;;;;;;;4.13;2.70;;;4.30;99.90;;;;;;4920379;29;20092;-86
2023/01/03 04:52:16;;;;;;;3.38;2.60;;;4.30;99.90;;;;;;4919858;29;20051;-86
2023/01/03 04:55:04;;;;;;;5.20;2.83;;;4.30;99.90;;;;;;4904324;29;20092;-85
2023/01/03 04:57:53;;;;;;;5.88;3.22;;;4.30;99.90;;;;;;4907707;29;20065;-85
2023/01/03 05:00:41;;;;;;;3.22;2.92;;;4.40;99.90;;;;;;4906138;29;20051;-86
2023/01/03 05:03:29;;;;;;;5.15;4.15;;;4.50;99.90;;;;;;4924867;29;20048;-86
2023/01/03 05:06:17;;;;;;;5.03;4.15;;;4.60;99.90;;;;;;4905374;29;20064;-86
2023/01/03 05:09:06;;;;;;;4.68;3.38;;;4.60;99.90;;;;;;4913772;29;20540;-86
2023/01/03 05:11:54;;;;;;;7.18;4.10;;;4.60;99.90;;;;;;4927777;29;20044;-88
2023/01/03 05:14:41;;;;;;;4.68;3.75;;;4.50;99.90;;;;;;4947401;29;20122;-86
2023/01/03 05:17:29;;;;;;;5.18;3.53;;;4.50;99.90;;;;;;4908739;29;20040;-85
2023/01/03 05:26:42;;;;;;;5.65;3.78;;;4.40;99.90;;;;;;4889320;29;20131;-86
2023/01/03 05:29:30;;;;;;;6.32;4.70;;;4.40;99.90;;;;;;4905775;29;20136;-86
2023/01/03 05:32:18;;;;;;;6.00;4.45;;;4.40;99.90;;;;;;4918916;29;20059;-86
2023/01/03 05:35:06;;;;;;;4.68;3.60;;;4.40;99.90;;;;;;4907088;29;20367;-86
2023/01/03 05:37:53;;;;;;;6.35;3.85;;;4.30;99.90;;;;;;4905083;29;20063;-85
2023/01/03 05:40:41;;;;;;;3.70;3.40;;;4.20;99.90;;;;;;4904050;29;20052;-85
2023/01/03 05:43:30;;;;;;;5.60;4.13;;;4.10;99.90;;;;;;4917686;29;20115;-85
2023/01/03 05:46:18;;;;;;;9.05;4.20;;;4.20;99.90;;;;;;4912011;29;20040;-85
2023/01/03 05:49:05;;;;;;;5.35;3.33;;;4.20;99.90;;;;;;4920460;29;20043;-85
2023/01/03 05:51:52;;;;;;;10.52;4.35;;;4.20;99.90;;;;;;4906468;29;20075;-85
2023/01/03 05:54:40;;;;;;;5.50;4.28;;;4.10;99.90;;;;;;4924232;29;20099;-86
2023/01/03 05:57:34;;;;;;;6.25;3.83;;;4.10;99.90;;;;;;4919770;29;20165;-85
2023/01/03 06:00:24;;;;;;;4.53;4.00;;;4.20;99.90;;;;;;4905654;29;20100;-87
2023/01/03 06:03:14;;;;;;;6.97;5.22;;;4.20;99.90;;;;;;4918810;29;20052;-85
2023/01/03 06:06:06;;;;;;;7.55;4.55;;;4.20;99.90;;;;;;4916269;29;20066;-85
2023/01/03 06:09:07;;;;;;;6.53;4.93;;;4.30;99.90;;;;;;4927446;29;20076;-85
2023/01/03 06:11:56;;;;;;;7.30;5.00;;;4.20;99.90;;;;;;4915975;29;20161;-85
2023/01/03 06:14:46;;;;;;;7.38;5.20;;;4.20;99.90;;;;;;4926054;29;20055;-87
2023/01/03 06:20:39;;;;;;;7.13;5.30;;;4.20;99.90;;;;;;4920497;29;20100;-88
2023/01/03 06:23:27;;;;;;;7.22;5.88;;;4.10;99.90;;;;;;4908514;29;20064;-87
2023/01/03 06:26:19;;;;;;;9.32;4.78;;;4.00;99.90;;;;;;4906707;29;20052;-87
2023/01/03 06:29:06;;;;;;;7.00;4.85;;;3.90;99.90;;;;;;4923084;29;20175;-88
2023/01/03 06:31:54;;;;;;;8.68;5.47;;;3.80;99.90;;;;;;4905081;29;20518;-88
2023/01/03 06:34:41;;;;;;;7.18;4.65;;;3.70;99.90;;;;;;4906675;29;20116;-89
2023/01/03 06:37:28;;;;;;;8.38;5.18;;;3.70;99.90;;;;;;4893582;29;20048;-88
2023/01/03 06:40:18;;;;;;;5.82;5.03;;;3.70;99.90;;;;;;4909070;29;20067;-89
2023/01/03 06:43:23;;;;;;;6.45;4.75;;;3.60;99.90;;;;;;4908866;29;20103;-90
2023/01/03 13:16:48;;;;;;;1.65;0.80;;;15.80;99.90;;;;;;5446560;23;20056;-86
2023/01/03 13:19:37;;;;;;;1.83;0.90;;;16.20;99.90;;;;;;4907894;29;20100;-88
2023/01/03 13:22:42;;;;;;;1.33;0.80;;;16.20;99.60;;;;;;4899444;29;20561;-87
2023/01/03 13:25:40;;;;;;;1.13;0.85;;;16.10;98.30;;;;;;4898265;29;20124;-89
2023/01/03 13:28:29;;;;;;;1.52;1.00;;;15.70;98.70;;;;;;4900093;29;20045;-87
2023/01/03 13:31:16;;;;;;;1.40;0.95;;;15.20;99.90;;;;;;4909667;29;20052;-88
2023/01/03 13:34:36;;;;;;;1.38;0.73;;;14.90;98.00;;;;;;4895690;29;20036;-87
2023/01/03 13:37:49;;;;;;;1.77;1.13;;;15.40;99.20;;;;;;4897236;29;20076;-86
2023/01/03 13:40:36;;;;;;;5.50;1.27;;;16.00;98.90;;;;;;4889292;29;20047;-87
2023/01/03 13:43:48;;;;;;;1.10;0.95;;;16.10;96.40;;;;;;4897784;29;20063;-87
2023/01/03 13:46:38;;;;;;;;;;;15.20;87.30;;;;;;4889133;29;20048;-86
2023/01/03 13:49:29;;;;;;;9.32;1.80;;;15.70;92.50;;;;;;4876336;29;19923;-86
2023/01/03 13:52:56;;;;;;;3.60;1.00;;;16.00;90.10;;;;;;4913706;29;20052;-85
2023/01/03 13:55:57;;;;;;;1.58;0.88;;;15.70;86.50;;;;;;4908433;29;20072;-88
2023/01/03 13:58:50;;;;;;;4.82;1.30;;;15.30;88.50;;;;;;4897170;29;20147;-85
2023/01/03 14:01:43;;;;;;;5.25;1.33;;;14.80;87.10;;;;;;4903236;29;20100;-88
2023/01/03 14:05:05;;;;;;;2.85;1.00;;;14.60;91.60;;;;;;4896017;29;20052;-88
2023/01/03 14:08:01;;;;;;;4.75;1.17;;;14.40;96.10;;;;;;4910945;29;20168;-87
2023/01/03 14:11:00;;;;;;;1.25;1.10;;;14.20;97.40;;;;;;4895511;29;20053;-88
2023/01/03 14:13:50;;;;;;;3.15;1.20;;;13.60;94.00;;;;;;4900120;29;20084;-86
2023/01/03 14:16:51;;;;;;;2.35;1.50;;;12.70;99.80;;;;;;4899217;29;20049;-86
2023/01/03 14:19:43;;;;;;;1.77;1.20;;;12.30;99.90;;;;;;4903712;29;20131;-87
2023/01/03 14:22:45;;;;;;;2.30;1.40;;;12.20;99.90;;;;;;4900274;29;20056;-86
2023/01/03 14:25:42;;;;;;;4.43;1.40;;;11.50;99.90;;;;;;4901665;29;20053;-87
2023/01/03 14:28:32;;;;;;;4.78;1.50;;;11.90;99.90;;;;;;4908324;29;20050;-86
2023/01/03 14:31:26;;;;;;;2.22;1.08;;;12.40;99.90;;;;;;4888334;29;20048;-86
2023/01/03 14:34:26;;;;;;;5.97;1.25;;;12.80;99.90;;;;;;4904158;29;20318;-89
2023/01/03 14:37:16;;;;;;;4.20;1.20;;;13.40;99.90;;;;;;4889741;29;20052;-88
2023/01/03 14:40:18;;;;;;;2.72;1.30;;;12.80;99.90;;;;;;4896343;29;20044;-87
2023/01/03 14:43:05;;;;;;;1.42;1.10;;;11.40;99.90;;;;;;4903644;29;20045;-85
2023/01/03 14:46:02;;;;;;;1.75;1.02;;;10.30;99.90;;;;;;4886341;29;20123;-86
2023/01/03 14:48:49;;;;;;;3.80;1.17;;;10.70;99.90;;;;;;4908754;29;20052;-86
2023/01/03 14:51:36;;;;;;;2.88;1.13;;;11.70;99.90;;;;;;4901773;29;20072;-86
2023/01/03 14:54:28;;;;;;;1.70;0.80;;;11.60;99.90;;;;;;4901846;29;20048;-84
2023/01/03 14:57:25;;;;;;;2.75;1.38;;;10.40;99.90;;;;;;4888124;29;20049;-85
2023/01/03 15:00:28;;;;;;;2.15;1.10;;;9.80;99.90;;;;;;4895484;29;20496;-86
2023/01/03 15:03:19;;;;;;;2.15;1.30;;;9.30;99.90;;;;;;4897913;29;20067;-86
2023/01/03 15:06:19;;;;;;;2.80;1.55;;;8.80;99.90;;;;;;4894921;29;20129;-86
2023/01/03 15:09:21;;;;;;;2.78;1.73;;;8.60;99.90;;;;;;4893060;29;20056;-86
2023/01/03 15:12:12;;;;;;;16.77;2.43;;;8.50;99.90;;;;;;4920587;29;20037;-85
2023/01/03 15:15:21;;;;;;;5.55;1.95;;;8.50;99.90;;;;;;4896763;29;20289;-86
2023/01/03 15:18:10;;;;;;;4.95;2.05;;;8.90;99.90;;;;;;4904181;29;20116;-85
2023/01/03 15:21:14;;;;;;;1.85;1.38;;;8.80;99.90;;;;;;4901157;29;20045;-85
2023/01/03 15:24:01;;;;;;;4.00;1.90;;;8.80;99.90;;;;;;4902800;29;20492;-87
2023/01/03 15:26:51;;;;;;;2.38;1.50;;;8.70;99.90;;;;;;4903826;29;20055;-86
2023/01/03 15:29:44;;;;;;;2.72;1.70;;;8.60;99.90;;;;;;4889438;29;20751;-85
2023/01/03 15:32:44;;;;;;;1.73;1.40;;;8.40;99.90;;;;;;4901977;29;20041;-85
2023/01/03 15:35:41;;;;;;;5.57;2.22;;;8.10;99.90;;;;;;4885936;29;20049;-86
2023/01/03 15:38:37;;;;;;;3.92;2.03;;;7.90;99.90;;;;;;4910675;29;20036;-87
2023/01/03 15:44:59;;;;;;;;;;;7.50;99.90;;;;;;4903105;29;20052;-86
2023/01/03 15:47:51;;;;;;;6.13;2.47;;;7.30;99.90;;;;;;4921961;29;19923;-86
2023/01/03 15:50:41;;;;;;;6.70;2.53;;;7.10;1.00;;;;;;4903119;29;20054;-86
2023/01/03 15:53:29;;;;;;;2.67;2.10;;;6.90;1.00;;;;;;4900668;29;20051;-86
2023/01/03 15:56:21;;;;;;;17.02;6.93;;;6.70;1.00;;;;;;4910030;29;20451;-86
2023/01/03 15:59:12;;;;;;;6.90;2.88;;;6.60;1.00;;;;;;4907028;29;20060;-86
2023/01/03 16:02:00;;;;;;;6.03;2.60;;;6.60;1.00;;;;;;4898491;29;20052;-86
2023/01/03 16:04:48;;;;;;;7.50;3.50;;;6.50;1.00;;;;;;4898157;29;20065;-86
2023/01/03 16:07:36;;;;;;;9.07;2.70;;;6.30;1.00;;;;;;4899899;29;20084;-86
2023/01/03 16:10:26;;;;;;;5.00;2.90;;;6.20;53.50;;;;;;4900884;29;20055;-87
2023/01/03 16:13:14;;;;;;;6.10;3.70;;;6.10;99.90;;;;;;4910064;29;20143;-86
2023/01/03 16:16:01;;;;;;;9.02;4.03;;;6.00;99.90;;;;;;4881218;29;20045;-86
2023/01/03 16:18:49;;;;;;;7.97;4.70;;;5.80;99.90;;;;;;4905488;29;20048;-87
2023/01/03 16:21:37;;;;;;;5.55;3.72;;;5.70;99.90;;;;;;4885318;29;20049;-87
2023/01/03 16:24:24;;;;;;;9.85;4.38;;;5.70;99.90;;;;;;4901058;29;20530;-86
2023/01/03 16:27:14;;;;;;;5.30;3.50;;;5.50;99.90;;;;;;4888762;29;20136;-87
2023/01/03 16:30:01;;;;;;;4.88;3.33;;;5.40;99.90;;;;;;4897131;29;20049;-86
2023/01/03 16:32:48;;;;;;;6.30;3.10;;;5.40;99.90;;;;;;4876044;29;20458;-86
2023/01/03 16:35:36;;;;;;;8.90;3.33;;;5.40;1.00;;;;;;4899328;29;20056;-87
2023/01/03 16:38:24;;;;;;;4.05;2.70;;;5.40;1.00;;;;;;4900652;29;20500;-86
2023/01/03 16:41:15;;;;;;;6.50;3.88;;;5.30;1.00;;;;;;4916536;29;20044;-87
2023/01/03 16:44:04;;;;;;;10.35;3.33;;;5.30;1.00;;;;;;4900639;29;20071;-87
2023/01/03 16:46:52;;;;;;;5.15;3.80;;;5.30;1.00;;;;;;4900203;29;20052;-88
2023/01/03 16:49:41;;;;;;;13.50;4.45;;;5.30;1.00;;;;;;4899960;29;20049;-86
2023/01/03 16:52:36;;;;;;;10.55;4.72;;;5.10;1.00;;;;;;4907437;29;20051;-86
2023/01/03 16:55:31;;;;;;;6.18;4.10;;;4.90;12.30;;;;;;4909336;29;20377;-85
2023/01/03 16:58:19;;;;;;;6.38;4.97;;;4.80;99.90;;;;;;4920542;29;20092;-85
2023/01/03 17:01:06;;;;;;;13.20;6.93;;;4.80;99.90;;;;;;4909620;29;20124;-86
2023/01/03 17:03:54;;;;;;;16.58;6.32;;;4.70;99.90;;;;;;4908672;29;20048;-86
2023/01/03 17:06:49;;;;;;;18.08;7.15;;;4.70;99.90;;;;;;4904720;29;20060;-86
2023/01/03 17:09:36;;;;;;;15.75;7.43;;;4.50;1.00;;;;;;4904756;29;20485;-86
2023/01/03 17:12:24;;;;;;;11.45;6.30;;;4.40;1.00;;;;;;4885303;29;20047;-87
2023/01/03 17:15:11;;;;;;;9.70;5.28;;;4.50;99.90;;;;;;4903600;29;20059;-86
2023/01/03 17:17:59;;;;;;;12.15;6.32;;;4.70;1.00;;;;;;4900428;29;20067;-87
2023/01/03 17:20:53;;;;;;;10.88;6.35;;;4.80;1.00;;;;;;4888553;29;20059;-87
2023/01/03 17:23:47;;;;;;;9.98;6.22;;;4.90;1.00;;;;;;4900472;29;20526;-86
2023/01/03 17:26:37;;;;;;;9.85;5.63;;;4.90;1.00;;;;;;4912623;29;20048;-87
2023/01/03 17:29:25;;;;;;;8.00;5.63;;;4.90;99.90;;;;;;4922316;29;20056;-87
2023/01/03 17:32:18;;;;;;;16.50;5.68;;;4.80;99.90;;;;;;4876434;29;20104;-86
2023/01/03 17:35:12;;;;;;;12.43;6.53;;;4.70;99.90;;;;;;4890449;29;20048;-86
2023/01/03 17:38:00;;;;;;;11.68;6.55;;;4.50;99.90;;;;;;4887977;29;20059;-85
2023/01/03 17:41:17;;;;;;;14.10;6.45;;;4.30;99.90;;;;;;4901271;29;20474;-87
2023/01/03 17:44:15;;;;;;;27.98;11.82;;;4.10;1.00;;;;;;4906983;29;20048;-87
2023/01/03 17:50:29;;;;;;;25.00;11.25;;;3.90;1.00;;;;;;4907902;29;20059;-87
2023/01/03 17:53:20;;;;;;;26.08;11.35;;;3.80;99.90;;;;;;4904859;29;20040;-86
2023/01/03 17:56:16;;;;;;;34.40;17.55;;;3.70;99.90;;;;;;4903888;29;20045;-86
2023/01/03 17:59:03;;;;;;;29.40;14.73;;;3.70;99.90;;;;;;4894641;29;20417;-86
2023/01/03 18:01:53;;;;;;;22.73;12.88;;;3.70;99.90;;;;;;4914455;29;20120;-89
2023/01/03 18:04:41;;;;;;;18.70;10.30;;;3.70;99.90;;;;;;4916430;29;20608;-86
2023/01/03 18:07:53;;;;;;;22.52;10.02;;;3.70;99.90;;;;;;4914835;29;20033;-85
2023/01/03 18:10:43;;;;;;;17.50;10.55;;;3.70;99.90;;;;;;4906771;29;20059;-87
2023/01/03 18:13:35;;;;;;;22.60;11.70;;;3.60;99.90;;;;;;4915876;29;20072;-87
2023/01/03 18:16:26;;;;;;;20.13;10.93;;;3.50;99.90;;;;;;4901169;29;20109;-87
2023/01/03 18:19:14;;;;;;;21.42;12.63;;;3.40;1.00;;;;;;4915850;29;20089;-86
2023/01/03 18:22:01;;;;;;;20.77;11.65;;;3.20;1.00;;;;;;4921534;29;20041;-86
2023/01/03 18:24:50;;;;;;;33.40;18.98;;;3.10;1.00;;;;;;4920246;29;20053;-87
2023/01/03 18:27:42;;;;;;;39.83;21.02;;;3.20;99.90;;;;;;4908862;29;20081;-87
2023/01/03 18:30:29;;;;;;;34.30;17.65;;;3.30;99.90;;;;;;4916161;29;20048;-86
2023/01/03 18:33:20;;;;;;;21.83;12.55;;;3.30;1.00;;;;;;4919296;29;20069;-87
2023/01/03 18:36:22;;;;;;;17.63;8.48;;;3.30;1.00;;;;;;4923356;29;20047;-86
2023/01/03 18:39:27;;;;;;;16.23;7.97;;;3.40;7.20;;;;;;4934588;28;20068;-87
2023/01/03 18:45:21;;;;;;;10.40;5.82;;;3.50;94.60;;;;;;4923423;29;20028;-87
2023/01/03 18:48:29;;;;;;;10.20;5.93;;;3.70;99.90;;;;;;4935597;29;20041;-85
2023/01/03 18:51:20;;;;;;;10.95;6.82;;;3.90;99.90;;;;;;4907515;29;20040;-87
2023/01/03 18:54:11;;;;;;;13.70;8.00;;;4.20;99.90;;;;;;4913571;29;20025;-84
2023/01/03 18:56:59;;;;;;;10.03;6.40;;;4.40;65.30;;;;;;4932776;29;20044;-86
2023/01/03 19:02:38;;;;;;;15.23;8.07;;;4.40;1.00;;;;;;4882917;29;20106;-87
2023/01/03 19:05:27;;;;;;;13.15;8.07;;;4.40;99.90;;;;;;4890636;29;20059;-86
2023/01/03 19:08:17;;;;;;;13.75;8.95;;;4.40;99.90;;;;;;4889624;29;20136;-85
2023/01/03 19:11:24;;;;;;;18.67;10.02;;;4.20;99.90;;;;;;4875866;29;20051;-88
2023/01/03 19:14:13;;;;;;;15.63;9.30;;;4.00;46.80;;;;;;4877741;29;20489;-88
2023/01/03 19:17:22;;;;;;;18.75;8.95;;;3.70;99.90;;;;;;4895956;29;20045;-85
2023/01/03 19:20:10;;;;;;;16.08;8.32;;;3.50;99.90;;;;;;4896905;29;20041;-86
2023/01/03 19:23:00;;;;;;;14.00;8.63;;;3.30;1.00;;;;;;4898831;29;20049;-85
2023/01/03 19:25:48;;;;;;;16.83;9.95;;;3.20;99.90;;;;;;4897558;29;20108;-87
2023/01/03 19:28:39;;;;;;;18.20;10.15;;;3.30;1.00;;;;;;4897625;29;20072;-86
2023/01/03 19:31:48;;;;;;;16.75;10.80;;;3.30;1.00;;;;;;4884374;29;20056;-87
2023/01/03 19:34:36;;;;;;;13.90;9.82;;;3.30;29.40;;;;;;4897991;29;20056;-87
2023/01/03 19:37:24;;;;;;;17.38;8.75;;;3.30;95.20;;;;;;4898023;29;20156;-88
2023/01/03 19:40:18;;;;;;;14.38;7.95;;;3.40;99.90;;;;;;4896429;29;20148;-88
2023/01/03 19:43:08;;;;;;;17.25;9.75;;;3.40;99.90;;;;;;4896075;29;20045;-86
2023/01/03 19:45:56;;;;;;;23.73;9.82;;;3.60;99.90;;;;;;4892143;29;20055;-87
2023/01/03 19:48:44;;;;;;;16.80;10.00;;;3.60;99.90;;;;;;4875583;29;20426;-87
2023/01/03 19:51:32;;;;;;;16.08;9.93;;;3.60;99.90;;;;;;4889726;29;20065;-87
2023/01/03 19:54:20;;;;;;;17.88;12.07;;;3.70;99.90;;;;;;4888125;29;20072;-86
2023/01/03 19:57:23;;;;;;;22.90;13.60;;;3.80;99.90;;;;;;4892682;29;20381;-86
2023/01/03 20:00:20;;;;;;;27.77;14.57;;;3.70;99.90;;;;;;4885091;29;20136;-86
2023/01/03 20:03:25;;;;;;;30.70;14.32;;;3.60;99.90;;;;;;4882347;29;20047;-86
2023/01/03 20:06:16;;;;;;;21.98;11.02;;;3.60;99.90;;;;;;4871876;29;20053;-89
2023/01/03 20:09:04;;;;;;;17.85;8.90;;;3.60;99.90;;;;;;4883968;29;20048;-86
2023/01/03 20:11:52;;;;;;;11.60;7.72;;;3.90;99.90;;;;;;4883171;29;20053;-88
2023/01/03 20:14:48;;;;;;;7.45;6.18;;;4.00;99.90;;;;;;4884250;29;20098;-87
2023/01/03 20:17:38;;;;;;;9.43;6.68;;;4.20;99.90;;;;;;4882658;29;20049;-88
2023/01/03 20:20:32;;;;;;;12.13;7.55;;;4.30;99.90;;;;;;4887356;29;20136;-89
2023/01/03 20:23:33;;;;;;;11.73;7.97;;;4.30;99.90;;;;;;4873009;29;20057;-89
2023/01/03 20:26:27;;;;;;;11.77;8.20;;;4.20;99.90;;;;;;4891239;29;20053;-88
2023/01/03 20:29:20;;;;;;;14.75;8.73;;;4.20;99.90;;;;;;4876971;29;20049;-87
2023/01/03 20:32:08;;;;;;;14.30;8.90;;;4.00;99.90;;;;;;4884192;29;20393;-88
2023/01/03 20:34:57;;;;;;;17.77;9.23;;;3.90;99.90;;;;;;4874542;29;20144;-88
2023/01/03 20:37:51;;;;;;;16.20;8.98;;;3.90;99.90;;;;;;4879690;29;20051;-85
2023/01/03 20:40:41;;;;;;;18.38;9.73;;;3.80;99.90;;;;;;4879411;29;20049;-88
2023/01/03 20:43:29;;;;;;;15.38;9.77;;;3.80;99.90;;;;;;4886985;29;20060;-86
2023/01/03 20:46:21;;;;;;;14.88;9.95;;;3.70;99.90;;;;;;4880517;29;20406;-88
2023/01/03 20:49:22;;;;;;;17.67;9.10;;;3.80;99.90;;;;;;4877262;29;20806;-90
2023/01/03 20:52:15;;;;;;;15.00;10.02;;;4.00;99.90;;;;;;4876166;29;20368;-90
2023/01/03 20:55:03;;;;;;;17.52;10.35;;;4.10;99.90;;;;;;4880234;29;20328;-89
2023/01/03 20:57:52;;;;;;;13.75;9.02;;;4.10;99.90;;;;;;4879437;29;20049;-88
2023/01/03 21:00:42;;;;;;;17.52;10.63;;;4.10;99.90;;;;;;4881194;29;20068;-88
2023/01/03 21:03:30;;;;;;;16.50;11.27;;;4.10;99.90;;;;;;4880475;29;20057;-89
2023/01/03 21:06:21;;;;;;;17.45;11.52;;;4.10;99.90;;;;;;4881173;29;20049;-88
2023/01/03 21:09:13;;;;;;;17.70;11.48;;;4.10;99.90;;;;;;4879678;29;20084;-88
2023/01/03 21:12:04;;;;;;;18.90;11.98;;;4.10;99.90;;;;;;4879254;29;20045;-89
2023/01/03 21:14:52;;;;;;;16.77;11.55;;;4.00;99.90;;;;;;4878796;29;20045;-88
2023/01/03 21:17:43;;;;;;;18.05;11.70;;;4.00;99.90;;;;;;4881089;29;20060;-88
2023/01/03 21:20:37;;;;;;;23.00;12.73;;;3.90;99.90;;;;;;4878239;29;20056;-89
2023/01/03 21:23:25;;;;;;;20.27;14.10;;;3.90;99.90;;;;;;4879004;29;20143;-88
2023/01/03 21:26:12;;;;;;;24.08;14.65;;;3.90;99.90;;;;;;4881141;29;20064;-88
2023/01/03 21:29:00;;;;;;;22.55;15.45;;;3.90;99.90;;;;;;4859019;29;20375;-89
2023/01/03 21:31:48;;;;;;;24.17;14.50;;;3.90;99.90;;;;;;4881477;29;20200;-87
2023/01/03 21:34:35;;;;;;;29.17;17.63;;;3.80;99.90;;;;;;4876892;29;20061;-87
2023/01/03 21:37:57;;;;;;;30.38;16.85;;;3.80;99.90;;;;;;4878928;29;20037;-87
2023/01/03 21:40:48;;;;;;;25.60;17.77;;;3.80;99.90;;;;;;4878057;29;20152;-89
2023/01/03 21:43:35;;;;;;;31.52;19.38;;;3.60;99.90;;;;;;4878937;29;20534;-88
2023/01/03 21:46:24;;;;;;;31.52;20.30;;;3.60;99.90;;;;;;4877469;29;20045;-90
2023/01/03 21:49:12;;;;;;;34.60;21.10;;;3.50;99.90;;;;;;4881594;29;20072;-88
2023/01/03 21:52:00;;;;;;;33.35;21.13;;;3.60;99.90;;;;;;4878476;29;20096;-88
2023/01/03 21:54:48;;;;;;;42.20;22.33;;;3.50;99.90;;;;;;4883566;29;20052;-88
2023/01/03 21:57:35;;;;;;;42.08;24.60;;;3.50;99.90;;;;;;4859373;29;20052;-87
2023/01/03 22:00:25;;;;;;;39.15;23.60;;;3.50;99.90;;;;;;4878614;29;20052;-89
2023/01/03 22:06:20;;;;;;;43.78;25.83;;;3.50;99.90;;;;;;4882887;29;20143;-89
2023/01/03 22:10:14;;;;;;;42.05;25.70;;;3.50;99.90;;;;;;4877681;29;20048;-91
2023/01/03 22:12:18;;;;;;;44.15;26.35;;;3.50;99.90;;;;;;4886688;29;20056;-88
2023/01/03 22:15:07;;;;;;;46.50;28.42;;;3.50;99.90;;;;;;4891343;29;20090;-87
2023/01/03 22:17:58;;;;;;;47.88;28.13;;;3.50;99.90;;;;;;4892686;29;20060;-86
2023/01/03 22:20:46;;;;;;;46.25;28.05;;;3.40;99.90;;;;;;4893209;29;20126;-86
2023/01/03 22:23:36;;;;;;;49.08;28.08;;;3.40;99.90;;;;;;4894221;29;20093;-84
2023/01/03 22:26:24;;;;;;;46.55;27.17;;;3.30;99.90;;;;;;4899759;29;20053;-85
2023/01/03 22:29:20;;;;;;;46.05;27.13;;;3.20;99.90;;;;;;4902153;29;20064;-88